createdAt,value
2018-03-27T00:00:04.127Z,91.20
2018-03-27T00:02:32.234Z,91.10
2018-03-27T00:05:00.296Z,91.20
2018-03-27T00:07:28.371Z,91.20
2018-03-27T00:09:56.440Z,91.20
2018-03-27T00:12:24.519Z,91.10
2018-03-27T00:14:52.567Z,91.20
2018-03-27T00:17:20.654Z,91.30
2018-03-27T00:19:48.714Z,90.90
2018-03-27T00:22:16.856Z,91.20
2018-03-27T00:24:45.678Z,91.90
2018-03-27T00:27:13.262Z,91.90
2018-03-27T00:29:53.194Z,92.10
2018-03-27T00:32:34.071Z,92.20
2018-03-27T00:35:13.901Z,92.70
2018-03-27T00:37:53.723Z,92.30
2018-03-27T00:40:33.637Z,92.40
2018-03-27T00:43:02.429Z,92.40
2018-03-27T00:45:30.631Z,92.50
2018-03-27T00:47:59.370Z,92.50
2018-03-27T00:50:27.423Z,92.30
2018-03-27T00:52:56.269Z,92.70
2018-03-27T00:55:24.365Z,92.70
2018-03-27T00:57:52.454Z,92.80
2018-03-27T01:00:20.529Z,92.60
2018-03-27T01:02:48.597Z,91.90
2018-03-27T01:05:16.671Z,92.20
2018-03-27T01:07:44.782Z,92.10
2018-03-27T01:10:12.848Z,92.20
2018-03-27T01:12:40.929Z,92.40
2018-03-27T01:15:09.016Z,92.50
2018-03-27T01:17:37.088Z,92.50
2018-03-27T01:20:05.253Z,92.80
2018-03-27T01:22:34.082Z,93.00
2018-03-27T01:25:02.454Z,93.00
2018-03-27T01:27:30.490Z,92.90
2018-03-27T01:29:58.560Z,92.80
2018-03-27T01:32:26.630Z,92.70
2018-03-27T01:34:54.720Z,92.70
2018-03-27T01:37:22.852Z,92.70
2018-03-27T01:39:50.926Z,92.70
2018-03-27T01:42:19.796Z,92.30
2018-03-27T01:44:47.879Z,92.50
2018-03-27T01:47:15.928Z,92.70
2018-03-27T01:49:44.098Z,92.80
2018-03-27T01:52:12.936Z,92.80
2018-03-27T01:54:41.164Z,92.80
2018-03-27T01:57:09.298Z,92.60
2018-03-27T01:59:37.374Z,92.20
2018-03-27T02:02:05.502Z,91.90
2018-03-27T02:04:33.576Z,92.20
2018-03-27T02:07:01.647Z,92.20
2018-03-27T02:09:29.734Z,92.60
2018-03-27T02:12:04.192Z,92.60
2018-03-27T02:14:38.062Z,92.60
2018-03-27T02:17:11.877Z,92.90
2018-03-27T02:19:45.560Z,92.80
2018-03-27T02:22:13.629Z,92.60
2018-03-27T02:24:41.702Z,92.80
2018-03-27T02:27:09.764Z,92.40
2018-03-27T02:29:37.838Z,92.40
2018-03-27T02:32:05.917Z,92.20
2018-03-27T02:34:34.003Z,92.10
2018-03-27T02:37:02.070Z,92.10
2018-03-27T02:39:31.074Z,92.40
2018-03-27T02:41:59.909Z,92.40
2018-03-27T02:44:27.995Z,92.40
2018-03-27T02:46:56.071Z,92.20
2018-03-27T02:49:24.133Z,92.20
2018-03-27T02:51:52.206Z,92.30
2018-03-27T02:54:21.967Z,92.30
2018-03-27T02:56:50.090Z,92.30
2018-03-27T02:59:18.166Z,92.20
2018-03-27T03:01:47.131Z,92.50
2018-03-27T03:04:15.171Z,92.60
2018-03-27T03:06:44.022Z,92.40
2018-03-27T03:09:12.080Z,92.40
2018-03-27T03:11:40.155Z,92.50
2018-03-27T03:14:09.019Z,93.10
2018-03-27T03:16:37.115Z,93.00
2018-03-27T03:19:05.270Z,93.10
2018-03-27T03:21:33.752Z,93.30
2018-03-27T03:24:03.626Z,93.40
2018-03-27T03:26:31.688Z,93.10
2018-03-27T03:28:59.825Z,92.80
2018-03-27T03:31:27.903Z,92.80
2018-03-27T03:34:00.685Z,92.30
2018-03-27T03:36:29.552Z,92.70
2018-03-27T03:38:57.643Z,92.70
2018-03-27T03:41:25.713Z,93.00
2018-03-27T03:43:53.774Z,92.70
2018-03-27T03:46:21.852Z,92.80
2018-03-27T03:48:49.939Z,92.70
2018-03-27T03:51:18.782Z,92.70
2018-03-27T03:53:47.662Z,92.70
2018-03-27T03:56:15.748Z,92.40
2018-03-27T03:58:43.823Z,92.40
2018-03-27T04:01:12.079Z,92.30
2018-03-27T04:03:40.110Z,92.40
2018-03-27T04:06:08.197Z,92.30
2018-03-27T04:08:36.268Z,92.50
2018-03-27T04:11:05.068Z,92.80
2018-03-27T04:13:33.157Z,92.70
2018-03-27T04:16:01.640Z,92.80
2018-03-27T04:18:29.696Z,92.60
2018-03-27T04:20:57.774Z,92.70
2018-03-27T04:23:25.886Z,92.70
2018-03-27T04:25:53.990Z,93.20
2018-03-27T04:28:22.090Z,92.60
2018-03-27T04:30:50.159Z,92.50
2018-03-27T04:33:18.299Z,92.60
2018-03-27T04:35:47.424Z,92.80
2018-03-27T04:38:15.504Z,92.70
2018-03-27T04:40:43.644Z,92.50
2018-03-27T04:43:11.706Z,92.60
2018-03-27T04:45:39.795Z,92.90
2018-03-27T04:48:07.880Z,92.90
2018-03-27T04:50:35.930Z,92.60
2018-03-27T04:53:04.001Z,92.80
2018-03-27T04:55:32.061Z,92.70
2018-03-27T04:58:00.902Z,93.00
2018-03-27T05:00:28.967Z,93.00
2018-03-27T05:02:57.045Z,92.90
2018-03-27T05:05:25.252Z,92.40
2018-03-27T05:07:53.394Z,92.20
2018-03-27T05:10:22.289Z,92.30
2018-03-27T05:12:50.349Z,92.30
2018-03-27T05:15:18.422Z,92.60
2018-03-27T05:17:46.482Z,92.80
2018-03-27T05:20:14.554Z,92.70
2018-03-27T05:22:42.651Z,92.70
2018-03-27T05:25:10.714Z,92.70
2018-03-27T05:27:38.793Z,92.90
2018-03-27T05:30:06.875Z,93.00
2018-03-27T05:32:35.697Z,92.30
2018-03-27T05:35:03.770Z,92.30
2018-03-27T05:37:31.845Z,92.40
2018-03-27T05:39:59.902Z,92.70
2018-03-27T05:42:27.990Z,92.90
2018-03-27T05:44:56.062Z,93.00
2018-03-27T05:47:24.136Z,93.00
2018-03-27T05:49:52.214Z,92.70
2018-03-27T05:52:20.290Z,92.80
2018-03-27T05:54:48.360Z,92.70
2018-03-27T05:57:16.415Z,92.60
2018-03-27T05:59:44.482Z,92.90
2018-03-27T06:02:13.329Z,93.30
2018-03-27T06:04:41.386Z,93.30
2018-03-27T06:07:09.466Z,93.50
2018-03-27T06:09:37.530Z,93.40
2018-03-27T06:12:06.374Z,93.50
2018-03-27T06:14:34.450Z,93.50
2018-03-27T06:17:02.524Z,93.30
2018-03-27T06:19:30.591Z,92.90
2018-03-27T06:21:58.671Z,92.90
2018-03-27T06:24:27.601Z,92.70
2018-03-27T06:26:55.678Z,92.70
2018-03-27T06:29:23.742Z,92.40
2018-03-27T06:31:52.585Z,92.40
2018-03-27T06:34:20.660Z,92.40
2018-03-27T06:36:48.754Z,92.20
2018-03-27T06:39:16.834Z,92.20
2018-03-27T06:41:44.894Z,92.10
2018-03-27T06:44:12.971Z,92.10
2018-03-27T06:46:41.024Z,92.10
2018-03-27T06:49:09.095Z,92.10
2018-03-27T06:51:37.158Z,92.30
2018-03-27T06:54:05.232Z,92.40
2018-03-27T06:56:33.292Z,92.80
2018-03-27T06:59:01.373Z,92.80
2018-03-27T07:01:29.473Z,92.90
2018-03-27T07:03:57.515Z,93.00
2018-03-27T07:06:25.595Z,92.60
2018-03-27T07:08:53.696Z,92.20
2018-03-27T07:11:21.720Z,92.40
2018-03-27T07:13:49.809Z,92.60
2018-03-27T07:16:17.922Z,92.10
2018-03-27T07:18:45.990Z,91.70
2018-03-27T07:21:14.073Z,92.10
2018-03-27T07:23:42.160Z,91.80
2018-03-27T07:26:10.230Z,90.70
2018-03-27T07:28:38.460Z,90.80
2018-03-27T07:31:06.534Z,90.30
2018-03-27T07:33:35.364Z,89.20
2018-03-27T07:36:03.483Z,88.40
2018-03-27T07:38:31.590Z,87.90
2018-03-27T07:40:59.652Z,86.00
2018-03-27T07:43:27.730Z,86.40
2018-03-27T07:45:55.798Z,85.00
2018-03-27T07:48:23.867Z,84.70
2018-03-27T07:50:51.934Z,85.70
2018-03-27T07:53:20.778Z,84.10
2018-03-27T07:55:48.856Z,84.10
2018-03-27T07:58:16.949Z,82.80
2018-03-27T08:00:45.053Z,82.60
2018-03-27T08:03:13.114Z,80.50
2018-03-27T08:05:41.195Z,83.30
2018-03-27T08:08:09.279Z,80.60
2018-03-27T08:10:37.347Z,77.30
2018-03-27T08:13:05.467Z,79.60
2018-03-27T08:15:33.528Z,75.80
2018-03-27T08:18:01.615Z,75.90
2018-03-27T08:20:29.672Z,74.60
2018-03-27T08:22:57.768Z,75.00
2018-03-27T08:25:25.841Z,74.80
2018-03-27T08:27:53.918Z,74.30
2018-03-27T08:30:22.748Z,75.50
2018-03-27T08:32:50.835Z,75.40
2018-03-27T08:35:18.907Z,76.90
2018-03-27T08:37:46.991Z,79.60
2018-03-27T08:40:15.075Z,78.60
2018-03-27T08:42:43.134Z,78.60
2018-03-27T08:45:11.227Z,79.40
2018-03-27T08:47:39.302Z,76.80
2018-03-27T08:50:07.408Z,76.00
2018-03-27T08:52:35.491Z,76.10
2018-03-27T08:55:03.570Z,75.30
2018-03-27T08:57:31.638Z,76.10
2018-03-27T08:59:59.925Z,77.40
2018-03-27T09:02:27.996Z,75.50
2018-03-27T09:04:56.845Z,71.80
2018-03-27T09:07:24.944Z,71.70
2018-03-27T09:09:53.023Z,67.30
2018-03-27T09:12:21.104Z,65.20
2018-03-27T09:14:50.105Z,70.60
2018-03-27T09:17:18.180Z,70.80
2018-03-27T09:19:46.254Z,73.10
2018-03-27T09:22:14.339Z,73.80
2018-03-27T09:24:42.417Z,70.60
2018-03-27T09:27:10.477Z,69.30
2018-03-27T09:29:38.583Z,66.70
2018-03-27T09:32:06.651Z,67.20
2018-03-27T09:34:35.492Z,61.40
2018-03-27T09:37:03.566Z,61.40
2018-03-27T09:39:31.654Z,60.10
2018-03-27T09:41:59.717Z,58.80
2018-03-27T09:44:27.810Z,50.50
2018-03-27T09:46:55.900Z,45.10
2018-03-27T09:49:24.748Z,33.50
2018-03-27T09:51:52.820Z,33.40
2018-03-27T09:54:21.025Z,34.00
2018-03-27T09:56:49.027Z,33.20
2018-03-27T09:59:17.113Z,37.60
2018-03-27T10:01:45.197Z,40.70
2018-03-27T10:04:13.276Z,46.20
2018-03-27T10:06:41.374Z,46.20
2018-03-27T10:09:09.451Z,46.40
2018-03-27T10:11:37.563Z,46.90
2018-03-27T10:14:05.859Z,47.80
2018-03-27T10:16:33.927Z,49.70
2018-03-27T10:19:02.391Z,47.80
2018-03-27T10:21:30.446Z,47.40
2018-03-27T10:23:58.802Z,48.60
2018-03-27T10:26:27.251Z,47.50
2018-03-27T10:28:56.323Z,46.10
2018-03-27T10:31:24.396Z,46.10
2018-03-27T10:33:52.480Z,43.20
2018-03-27T10:36:20.561Z,41.50
2018-03-27T10:38:48.661Z,34.80
2018-03-27T10:41:16.733Z,34.70
2018-03-27T10:43:44.800Z,30.60
2018-03-27T10:46:12.874Z,29.80
2018-03-27T10:48:40.992Z,31.50
2018-03-27T10:51:09.340Z,32.20
2018-03-27T10:53:37.543Z,32.00
2018-03-27T10:56:05.622Z,30.40
2018-03-27T10:58:33.780Z,30.80
2018-03-27T11:01:02.604Z,29.70
2018-03-27T11:03:30.688Z,29.70
2018-03-27T11:05:58.781Z,31.40
2018-03-27T11:08:26.896Z,31.10
2018-03-27T11:10:54.942Z,31.70
2018-03-27T11:13:23.030Z,33.70
2018-03-27T11:15:51.108Z,35.00
2018-03-27T11:18:19.349Z,35.10
2018-03-27T11:20:47.683Z,38.00
2018-03-27T11:23:15.806Z,40.70
2018-03-27T11:25:43.852Z,41.80
2018-03-27T11:28:11.916Z,41.70
2018-03-27T11:30:40.001Z,42.50
2018-03-27T11:33:08.073Z,42.20
2018-03-27T11:35:36.952Z,42.50
2018-03-27T11:38:05.030Z,42.50
2018-03-27T11:40:33.105Z,42.80
2018-03-27T11:43:01.181Z,44.80
2018-03-27T11:45:29.271Z,44.80
2018-03-27T11:47:57.345Z,44.60
2018-03-27T11:50:25.431Z,44.60
2018-03-27T11:52:53.886Z,41.20
2018-03-27T11:55:22.028Z,37.80
2018-03-27T11:57:50.093Z,38.10
2018-03-27T12:00:18.207Z,36.90
2018-03-27T12:02:47.046Z,38.00
2018-03-27T12:05:15.134Z,37.90
2018-03-27T12:07:43.213Z,39.90
2018-03-27T12:10:11.288Z,41.20
2018-03-27T12:12:40.134Z,42.80
2018-03-27T12:15:08.197Z,42.80
2018-03-27T12:17:36.398Z,43.60
2018-03-27T12:20:04.487Z,44.10
2018-03-27T12:22:32.661Z,43.00
2018-03-27T12:25:00.719Z,43.50
2018-03-27T12:27:28.795Z,42.20
2018-03-27T12:29:56.873Z,42.40
2018-03-27T12:32:25.182Z,41.30
2018-03-27T12:34:53.243Z,39.70
2018-03-27T12:37:21.324Z,40.50
2018-03-27T12:39:49.457Z,39.20
2018-03-27T12:42:17.563Z,38.60
2018-03-27T12:44:45.633Z,39.60
2018-03-27T12:47:13.713Z,38.10
2018-03-27T12:49:41.790Z,38.40
2018-03-27T12:52:09.875Z,36.30
2018-03-27T12:54:38.048Z,35.40
2018-03-27T12:57:06.107Z,34.10
2018-03-27T12:59:34.182Z,35.20
2018-03-27T13:02:02.267Z,34.80
2018-03-27T13:04:30.329Z,33.90
2018-03-27T13:06:58.405Z,33.30
2018-03-27T13:09:26.460Z,35.30
2018-03-27T13:11:54.547Z,36.40
2018-03-27T13:14:22.640Z,37.50
2018-03-27T13:16:50.727Z,39.20
2018-03-27T13:19:18.833Z,39.80
2018-03-27T13:21:47.703Z,41.10
2018-03-27T13:24:16.276Z,41.00
2018-03-27T13:26:44.358Z,41.00
2018-03-27T13:29:12.430Z,41.20
2018-03-27T13:31:40.524Z,40.70
2018-03-27T13:34:08.612Z,39.10
2018-03-27T13:36:36.703Z,37.80
2018-03-27T13:39:04.840Z,36.10
2018-03-27T13:41:33.631Z,34.00
2018-03-27T13:44:02.478Z,33.60
2018-03-27T13:46:30.557Z,33.60
2018-03-27T13:48:58.625Z,33.80
2018-03-27T13:51:26.726Z,34.20
2018-03-27T13:53:54.808Z,35.90
2018-03-27T13:56:22.893Z,37.60
2018-03-27T13:58:50.966Z,37.20
2018-03-27T14:01:19.046Z,37.70
2018-03-27T14:03:47.764Z,37.40
2018-03-27T14:06:15.848Z,37.90
2018-03-27T14:08:44.684Z,38.10
2018-03-27T14:11:12.755Z,38.10
2018-03-27T14:13:40.825Z,39.40
2018-03-27T14:16:08.884Z,38.60
2018-03-27T14:18:36.956Z,38.40
2018-03-27T14:21:05.868Z,38.00
2018-03-27T14:23:33.971Z,39.20
2018-03-27T14:26:02.069Z,39.50
2018-03-27T14:28:30.131Z,39.80
2018-03-27T14:30:58.322Z,40.00
2018-03-27T14:33:26.400Z,40.20
2018-03-27T14:35:54.465Z,41.50
2018-03-27T14:38:22.548Z,41.40
2018-03-27T14:40:50.614Z,41.30
2018-03-27T14:43:19.453Z,42.50
2018-03-27T14:45:47.520Z,42.40
2018-03-27T14:48:15.602Z,43.20
2018-03-27T14:50:44.646Z,44.20
2018-03-27T14:53:12.744Z,44.20
2018-03-27T14:55:40.821Z,44.90
2018-03-27T14:58:08.902Z,44.20
2018-03-27T15:00:36.973Z,44.60
2018-03-27T15:03:05.052Z,45.50
2018-03-27T15:05:33.203Z,46.00
2018-03-27T15:08:01.253Z,46.60
2018-03-27T15:10:29.325Z,46.90
2018-03-27T15:12:57.411Z,47.10
2018-03-27T15:15:25.477Z,47.60
2018-03-27T15:17:53.624Z,47.90
2018-03-27T15:20:21.672Z,48.50
2018-03-27T15:22:49.736Z,49.00
2018-03-27T15:25:17.784Z,48.60
2018-03-27T15:27:45.976Z,48.90
2018-03-27T15:30:14.786Z,48.80
2018-03-27T15:32:42.887Z,48.70
2018-03-27T15:35:10.945Z,49.10
2018-03-27T15:37:39.023Z,48.60
2018-03-27T15:40:07.244Z,48.30
2018-03-27T15:42:35.324Z,48.80
2018-03-27T15:45:04.305Z,48.20
2018-03-27T15:47:32.469Z,48.30
2018-03-27T15:50:01.330Z,48.60
2018-03-27T15:52:29.400Z,48.60
2018-03-27T15:54:57.533Z,48.20
2018-03-27T15:57:25.706Z,48.40
2018-03-27T15:59:54.582Z,48.70
2018-03-27T16:02:22.639Z,48.70
2018-03-27T16:04:51.730Z,49.00
2018-03-27T16:07:19.788Z,48.90
2018-03-27T16:09:47.873Z,48.20
2018-03-27T16:12:16.708Z,48.80
2018-03-27T16:14:44.826Z,48.80
2018-03-27T16:17:12.967Z,48.50
2018-03-27T16:19:41.057Z,48.80
2018-03-27T16:22:09.102Z,48.80
2018-03-27T16:24:37.940Z,49.20
2018-03-27T16:27:06.008Z,49.10
2018-03-27T16:29:34.138Z,49.30
2018-03-27T16:32:02.269Z,49.60
2018-03-27T16:34:31.709Z,49.70
2018-03-27T16:36:59.778Z,49.80
2018-03-27T16:39:28.504Z,49.90
2018-03-27T16:41:56.665Z,49.50
2018-03-27T16:44:24.758Z,49.70
2018-03-27T16:46:52.838Z,50.20
2018-03-27T16:49:20.978Z,49.90
2018-03-27T16:51:49.069Z,50.50
2018-03-27T16:54:17.151Z,50.40
2018-03-27T16:56:45.215Z,50.60
2018-03-27T16:59:14.120Z,50.60
2018-03-27T17:01:42.200Z,51.40
2018-03-27T17:04:10.272Z,51.60
2018-03-27T17:06:38.358Z,52.10
2018-03-27T17:09:06.524Z,52.80
2018-03-27T17:11:34.571Z,53.10
2018-03-27T17:14:03.409Z,52.80
2018-03-27T17:16:31.485Z,52.90
2018-03-27T17:18:59.655Z,52.80
2018-03-27T17:21:27.738Z,52.90
2018-03-27T17:23:55.874Z,52.50
2018-03-27T17:26:23.956Z,52.60
2018-03-27T17:28:52.249Z,52.60
2018-03-27T17:31:20.320Z,53.10
2018-03-27T17:33:48.515Z,52.80
2018-03-27T17:36:16.587Z,53.00
2018-03-27T17:38:44.662Z,53.00
2018-03-27T17:41:12.791Z,53.10
2018-03-27T17:43:40.856Z,53.10
2018-03-27T17:46:08.933Z,52.80
2018-03-27T17:48:37.122Z,52.80
2018-03-27T17:51:05.192Z,53.10
2018-03-27T17:53:33.263Z,53.00
2018-03-27T17:56:01.332Z,53.40
2018-03-27T17:58:29.400Z,53.50
2018-03-27T18:00:58.241Z,53.60
2018-03-27T18:03:26.585Z,53.60
2018-03-27T18:05:54.649Z,53.50
2018-03-27T18:08:22.735Z,53.30
2018-03-27T18:10:50.805Z,53.70
2018-03-27T18:13:18.896Z,54.60
2018-03-27T18:15:46.969Z,56.60
2018-03-27T18:18:15.100Z,57.80
2018-03-27T18:20:43.168Z,60.90
2018-03-27T18:23:12.024Z,65.90
2018-03-27T18:25:40.137Z,65.90
2018-03-27T18:28:08.197Z,68.30
2018-03-27T18:30:36.303Z,70.70
2018-03-27T18:33:05.143Z,69.90
2018-03-27T18:35:33.217Z,70.10
2018-03-27T18:38:02.048Z,73.30
2018-03-27T18:40:30.136Z,73.30
2018-03-27T18:42:58.229Z,71.60
2018-03-27T18:45:26.284Z,71.70
2018-03-27T18:47:54.406Z,72.60
2018-03-27T18:50:22.500Z,72.90
2018-03-27T18:52:51.452Z,71.90
2018-03-27T18:55:19.537Z,73.10
2018-03-27T18:57:47.615Z,73.70
2018-03-27T19:00:15.676Z,73.30
2018-03-27T19:02:44.495Z,73.00
2018-03-27T19:05:12.595Z,73.00
2018-03-27T19:07:40.706Z,73.40
2018-03-27T19:10:08.867Z,73.40
2018-03-27T19:12:36.959Z,73.00
2018-03-27T19:15:05.040Z,72.80
2018-03-27T19:17:33.105Z,72.60
2018-03-27T19:20:01.271Z,72.40
2018-03-27T19:22:31.092Z,73.80
2018-03-27T19:24:59.916Z,73.30
2018-03-27T19:27:27.977Z,73.30
2018-03-27T19:29:56.925Z,74.20
2018-03-27T19:32:25.761Z,74.40
2018-03-27T19:34:53.820Z,74.40
2018-03-27T19:37:21.889Z,73.70
2018-03-27T19:39:49.971Z,73.20
2018-03-27T19:42:18.037Z,73.70
2018-03-27T19:44:46.117Z,74.10
2018-03-27T19:47:14.224Z,72.60
2018-03-27T19:49:43.200Z,73.00
2018-03-27T19:52:12.194Z,73.20
2018-03-27T19:54:40.197Z,73.20
2018-03-27T19:57:08.276Z,73.40
2018-03-27T19:59:36.562Z,73.20
2018-03-27T20:02:04.622Z,73.20
2018-03-27T20:04:32.684Z,73.50
2018-03-27T20:07:00.782Z,73.70
2018-03-27T20:09:28.843Z,73.60
2018-03-27T20:11:56.926Z,73.80
2018-03-27T20:14:25.000Z,73.90
2018-03-27T20:16:53.085Z,74.60
2018-03-27T20:19:21.148Z,74.40
2018-03-27T20:21:49.225Z,74.60
2018-03-27T20:24:17.339Z,74.00
2018-03-27T20:26:45.428Z,74.60
2018-03-27T20:29:13.497Z,75.50
2018-03-27T20:31:41.565Z,75.50
2018-03-27T20:34:09.901Z,75.70
2018-03-27T20:36:38.988Z,75.90
2018-03-27T20:39:07.053Z,76.40
2018-03-27T20:41:35.121Z,76.30
2018-03-27T20:44:03.195Z,76.50
2018-03-27T20:46:32.043Z,76.70
2018-03-27T20:49:00.153Z,76.70
2018-03-27T20:51:28.205Z,76.60
2018-03-27T20:53:56.305Z,76.80
2018-03-27T20:56:24.348Z,77.20
2018-03-27T20:58:52.424Z,77.40
2018-03-27T21:01:20.481Z,77.10
2018-03-27T21:03:49.324Z,77.30
2018-03-27T21:06:17.400Z,77.30
2018-03-27T21:08:45.480Z,77.10
2018-03-27T21:11:14.125Z,77.30
2018-03-27T21:13:42.201Z,77.40
2018-03-27T21:16:10.256Z,77.70
2018-03-27T21:18:38.335Z,77.80
2018-03-27T21:21:06.442Z,77.70
2018-03-27T21:23:34.489Z,77.60
2018-03-27T21:26:02.574Z,77.70
2018-03-27T21:28:30.653Z,78.00
2018-03-27T21:30:58.722Z,77.40
2018-03-27T21:33:27.560Z,77.50
2018-03-27T21:35:55.624Z,77.40
2018-03-27T21:38:23.709Z,77.50
2018-03-27T21:40:51.780Z,78.60
2018-03-27T21:43:20.596Z,80.90
2018-03-27T21:45:48.678Z,80.80
2018-03-27T21:48:16.729Z,81.70
2018-03-27T21:50:44.898Z,81.40
2018-03-27T21:53:13.021Z,81.90
2018-03-27T21:55:41.868Z,82.60
2018-03-27T21:58:10.062Z,82.50
2018-03-27T22:00:38.109Z,82.00
2018-03-27T22:03:06.156Z,83.20
2018-03-27T22:05:34.238Z,83.50
2018-03-27T22:08:03.742Z,84.80
2018-03-27T22:10:31.817Z,84.80
2018-03-27T22:12:59.885Z,82.90
2018-03-27T22:15:27.957Z,83.80
2018-03-27T22:17:56.012Z,83.70
2018-03-27T22:20:24.084Z,83.40
2018-03-27T22:22:52.922Z,82.70
2018-03-27T22:25:21.766Z,83.10
2018-03-27T22:27:49.833Z,83.00
2018-03-27T22:30:17.909Z,84.30
2018-03-27T22:32:45.976Z,84.60
2018-03-27T22:35:14.026Z,85.20
2018-03-27T22:37:42.076Z,84.80
2018-03-27T22:40:10.153Z,85.70
2018-03-27T22:42:38.881Z,85.90
2018-03-27T22:45:07.945Z,84.90
2018-03-27T22:47:35.994Z,85.70
2018-03-27T22:50:04.243Z,84.80
2018-03-27T22:52:32.370Z,85.50
2018-03-27T22:55:00.418Z,85.40
2018-03-27T22:57:28.474Z,85.40
2018-03-27T22:59:56.539Z,85.20
2018-03-27T23:02:24.609Z,85.30
2018-03-27T23:04:52.641Z,85.10
2018-03-27T23:07:20.730Z,85.70
2018-03-27T23:09:48.784Z,85.30
2018-03-27T23:12:16.844Z,85.40
2018-03-27T23:14:44.912Z,86.10
2018-03-27T23:17:13.724Z,87.00
2018-03-27T23:19:41.759Z,86.90
2018-03-27T23:22:10.041Z,87.00
2018-03-27T23:24:39.514Z,87.30
2018-03-27T23:27:08.007Z,87.20
2018-03-27T23:29:36.047Z,87.40
2018-03-27T23:32:04.114Z,87.50
2018-03-27T23:34:32.163Z,87.10
2018-03-27T23:37:00.234Z,86.50
2018-03-27T23:39:28.283Z,86.70
2018-03-27T23:41:57.130Z,86.70
2018-03-27T23:44:25.190Z,86.70
2018-03-27T23:46:53.275Z,87.20
2018-03-27T23:49:21.321Z,86.70
2018-03-27T23:51:49.389Z,86.70
2018-03-27T23:54:17.443Z,87.10
2018-03-27T23:56:45.533Z,86.90
2018-03-27T23:59:13.593Z,86.80
